Terminal Aerodrome Forecast
Issued by NWS

Home | Current Version | Previous Version | Graphics & Text | Print | Product List | Glossary On
Versions: 1 2 3 4 5 6 7 8 9 10 11 12 13 14 15 16 17 18 19 20 21 22 23 24 25
000
FTUS43 KABR 080856 AAA
TAFATY
TAF AMD
KATY 080856Z 0809/0906 33008KT P6SM BKN010
      TEMPO 0809/0811 OVC005
     FM081100 32008KT P6SM OVC005
     FM082200 31015G25KT P6SM OVC040
     FM090100 32015G24KT P6SM BKN030=

USA.gov is the U.S. government's official web portal to all federal, state and local government web resources and services.